sensor_id;sensor_type;location;lat;lon;timestamp;P1;durP1;ratioP1;P2;durP2;ratioP2
24030;SDS011;12240;51.142;22.486;2023-11-21T00:02:57;33.00;;;12.00;;
24030;SDS011;12240;51.142;22.486;2023-11-21T00:05:24;30.60;;;12.00;;
24030;SDS011;12240;51.142;22.486;2023-11-21T00:07:50;30.70;;;11.70;;
24030;SDS011;12240;51.142;22.486;2023-11-21T00:10:16;28.30;;;9.80;;
24030;SDS011;12240;51.142;22.486;2023-11-21T00:12:42;32.50;;;12.00;;
24030;SDS011;12240;51.142;22.486;2023-11-21T00:15:09;33.50;;;12.60;;
24030;SDS011;12240;51.142;22.486;2023-11-21T00:17:37;32.30;;;12.00;;
24030;SDS011;12240;51.142;22.486;2023-11-21T00:20:04;29.50;;;11.00;;
24030;SDS011;12240;51.142;22.486;2023-11-21T00:22:33;28.10;;;11.80;;
24030;SDS011;12240;51.142;22.486;2023-11-21T00:25:02;30.40;;;12.30;;
24030;SDS011;12240;51.142;22.486;2023-11-21T00:27:30;23.90;;;9.90;;
24030;SDS011;12240;51.142;22.486;2023-11-21T00:29:56;26.80;;;10.80;;
24030;SDS011;12240;51.142;22.486;2023-11-21T00:32:22;28.40;;;11.50;;
24030;SDS011;12240;51.142;22.486;2023-11-21T00:34:48;27.40;;;10.60;;
24030;SDS011;12240;51.142;22.486;2023-11-21T00:37:14;24.10;;;10.70;;
24030;SDS011;12240;51.142;22.486;2023-11-21T00:39:40;26.40;;;10.50;;
24030;SDS011;12240;51.142;22.486;2023-11-21T00:42:07;26.70;;;10.90;;
24030;SDS011;12240;51.142;22.486;2023-11-21T00:44:34;30.40;;;11.60;;
24030;SDS011;12240;51.142;22.486;2023-11-21T00:47:03;31.30;;;12.50;;
24030;SDS011;12240;51.142;22.486;2023-11-21T00:49:29;32.00;;;11.20;;
24030;SDS011;12240;51.142;22.486;2023-11-21T00:51:55;30.50;;;12.10;;
24030;SDS011;12240;51.142;22.486;2023-11-21T00:54:21;29.80;;;11.90;;
24030;SDS011;12240;51.142;22.486;2023-11-21T00:56:47;34.00;;;12.50;;
24030;SDS011;12240;51.142;22.486;2023-11-21T00:59:14;31.20;;;11.30;;
24030;SDS011;12240;51.142;22.486;2023-11-21T01:01:40;30.70;;;10.60;;
24030;SDS011;12240;51.142;22.486;2023-11-21T01:04:06;31.60;;;11.90;;
24030;SDS011;12240;51.142;22.486;2023-11-21T01:06:32;29.40;;;10.00;;
24030;SDS011;12240;51.142;22.486;2023-11-21T01:08:58;28.20;;;9.50;;
24030;SDS011;12240;51.142;22.486;2023-11-21T01:11:24;24.20;;;10.60;;
24030;SDS011;12240;51.142;22.486;2023-11-21T01:13:51;26.70;;;10.80;;
24030;SDS011;12240;51.142;22.486;2023-11-21T01:16:17;27.50;;;10.40;;
24030;SDS011;12240;51.142;22.486;2023-11-21T01:18:43;31.30;;;11.20;;
24030;SDS011;12240;51.142;22.486;2023-11-21T01:21:09;25.40;;;10.40;;
24030;SDS011;12240;51.142;22.486;2023-11-21T01:23:35;24.70;;;10.00;;
24030;SDS011;12240;51.142;22.486;2023-11-21T01:26:01;28.40;;;10.70;;
24030;SDS011;12240;51.142;22.486;2023-11-21T01:28:27;26.60;;;11.50;;
24030;SDS011;12240;51.142;22.486;2023-11-21T01:30:53;28.20;;;11.50;;
24030;SDS011;12240;51.142;22.486;2023-11-21T01:33:22;27.40;;;11.10;;
24030;SDS011;12240;51.142;22.486;2023-11-21T01:35:50;30.50;;;10.80;;
24030;SDS011;12240;51.142;22.486;2023-11-21T01:38:18;28.40;;;11.00;;
24030;SDS011;12240;51.142;22.486;2023-11-21T01:40:44;26.70;;;11.10;;
24030;SDS011;12240;51.142;22.486;2023-11-21T01:43:10;26.70;;;10.90;;
24030;SDS011;12240;51.142;22.486;2023-11-21T01:45:37;26.80;;;10.60;;
24030;SDS011;12240;51.142;22.486;2023-11-21T01:48:04;30.20;;;11.20;;
24030;SDS011;12240;51.142;22.486;2023-11-21T01:50:32;22.10;;;8.80;;
24030;SDS011;12240;51.142;22.486;2023-11-21T01:52:59;31.40;;;12.00;;
24030;SDS011;12240;51.142;22.486;2023-11-21T01:55:26;28.20;;;10.00;;
24030;SDS011;12240;51.142;22.486;2023-11-21T01:57:54;23.30;;;9.40;;
24030;SDS011;12240;51.142;22.486;2023-11-21T02:00:23;24.50;;;10.80;;
24030;SDS011;12240;51.142;22.486;2023-11-21T02:02:50;33.70;;;12.50;;
24030;SDS011;12240;51.142;22.486;2023-11-21T02:05:17;33.80;;;12.90;;
24030;SDS011;12240;51.142;22.486;2023-11-21T02:07:45;25.80;;;10.40;;
24030;SDS011;12240;51.142;22.486;2023-11-21T02:10:15;28.50;;;11.30;;
24030;SDS011;12240;51.142;22.486;2023-11-21T02:12:42;32.20;;;12.40;;
24030;SDS011;12240;51.142;22.486;2023-11-21T02:15:10;31.70;;;12.90;;
24030;SDS011;12240;51.142;22.486;2023-11-21T02:17:41;29.80;;;12.00;;
24030;SDS011;12240;51.142;22.486;2023-11-21T02:20:11;31.90;;;12.00;;
24030;SDS011;12240;51.142;22.486;2023-11-21T02:22:41;31.10;;;12.50;;
24030;SDS011;12240;51.142;22.486;2023-11-21T02:25:08;28.60;;;12.30;;
24030;SDS011;12240;51.142;22.486;2023-11-21T02:27:34;33.50;;;13.10;;
24030;SDS011;12240;51.142;22.486;2023-11-21T02:30:02;26.70;;;11.20;;
24030;SDS011;12240;51.142;22.486;2023-11-21T02:32:30;32.60;;;12.10;;
24030;SDS011;12240;51.142;22.486;2023-11-21T02:34:57;31.00;;;12.50;;
24030;SDS011;12240;51.142;22.486;2023-11-21T02:37:26;30.20;;;13.00;;
24030;SDS011;12240;51.142;22.486;2023-11-21T02:39:52;29.80;;;11.40;;
24030;SDS011;12240;51.142;22.486;2023-11-21T02:42:18;33.40;;;12.50;;
24030;SDS011;12240;51.142;22.486;2023-11-21T02:44:44;35.40;;;13.60;;
24030;SDS011;12240;51.142;22.486;2023-11-21T02:47:10;33.50;;;12.50;;
24030;SDS011;12240;51.142;22.486;2023-11-21T02:49:36;19.70;;;7.70;;
24030;SDS011;12240;51.142;22.486;2023-11-21T02:52:02;30.40;;;11.00;;
24030;SDS011;12240;51.142;22.486;2023-11-21T02:54:29;31.90;;;10.90;;
24030;SDS011;12240;51.142;22.486;2023-11-21T02:56:55;28.40;;;11.70;;
24030;SDS011;12240;51.142;22.486;2023-11-21T02:59:21;26.00;;;10.10;;
24030;SDS011;12240;51.142;22.486;2023-11-21T03:01:46;30.60;;;11.90;;
24030;SDS011;12240;51.142;22.486;2023-11-21T03:04:13;31.60;;;11.40;;
24030;SDS011;12240;51.142;22.486;2023-11-21T03:06:43;26.20;;;10.70;;
24030;SDS011;12240;51.142;22.486;2023-11-21T03:09:11;27.20;;;9.40;;
24030;SDS011;12240;51.142;22.486;2023-11-21T03:11:40;28.50;;;11.40;;
24030;SDS011;12240;51.142;22.486;2023-11-21T03:14:06;24.80;;;10.10;;
24030;SDS011;12240;51.142;22.486;2023-11-21T03:16:32;32.30;;;12.50;;
24030;SDS011;12240;51.142;22.486;2023-11-21T03:18:58;21.20;;;9.00;;
24030;SDS011;12240;51.142;22.486;2023-11-21T03:21:24;23.20;;;8.90;;
24030;SDS011;12240;51.142;22.486;2023-11-21T03:23:51;31.80;;;11.30;;
24030;SDS011;12240;51.142;22.486;2023-11-21T03:26:18;32.40;;;11.30;;
24030;SDS011;12240;51.142;22.486;2023-11-21T03:28:44;26.00;;;10.30;;
24030;SDS011;12240;51.142;22.486;2023-11-21T03:31:11;20.50;;;8.20;;
24030;SDS011;12240;51.142;22.486;2023-11-21T03:33:37;26.10;;;10.60;;
24030;SDS011;12240;51.142;22.486;2023-11-21T03:36:03;28.00;;;10.30;;
24030;SDS011;12240;51.142;22.486;2023-11-21T03:38:29;26.10;;;10.60;;
24030;SDS011;12240;51.142;22.486;2023-11-21T03:40:55;25.60;;;10.30;;
24030;SDS011;12240;51.142;22.486;2023-11-21T03:43:21;28.80;;;11.20;;
24030;SDS011;12240;51.142;22.486;2023-11-21T03:45:47;26.90;;;10.30;;
24030;SDS011;12240;51.142;22.486;2023-11-21T03:48:14;24.70;;;10.20;;
24030;SDS011;12240;51.142;22.486;2023-11-21T03:50:40;23.60;;;10.10;;
24030;SDS011;12240;51.142;22.486;2023-11-21T03:53:06;25.90;;;10.60;;
24030;SDS011;12240;51.142;22.486;2023-11-21T03:55:32;20.40;;;7.80;;
24030;SDS011;12240;51.142;22.486;2023-11-21T03:57:58;20.10;;;8.50;;
24030;SDS011;12240;51.142;22.486;2023-11-21T04:00:25;16.40;;;7.10;;
24030;SDS011;12240;51.142;22.486;2023-11-21T04:02:52;23.40;;;10.10;;
24030;SDS011;12240;51.142;22.486;2023-11-21T04:05:20;18.10;;;8.00;;
24030;SDS011;12240;51.142;22.486;2023-11-21T04:07:49;22.80;;;9.30;;
24030;SDS011;12240;51.142;22.486;2023-11-21T04:10:16;23.60;;;9.90;;
24030;SDS011;12240;51.142;22.486;2023-11-21T04:12:43;20.90;;;8.80;;
24030;SDS011;12240;51.142;22.486;2023-11-21T04:15:09;24.50;;;9.70;;
24030;SDS011;12240;51.142;22.486;2023-11-21T04:17:35;18.40;;;7.50;;
24030;SDS011;12240;51.142;22.486;2023-11-21T04:20:03;19.00;;;7.10;;
24030;SDS011;12240;51.142;22.486;2023-11-21T04:22:41;21.00;;;7.90;;
24030;SDS011;12240;51.142;22.486;2023-11-21T04:25:10;18.90;;;8.10;;
24030;SDS011;12240;51.142;22.486;2023-11-21T04:27:38;21.20;;;8.40;;
24030;SDS011;12240;51.142;22.486;2023-11-21T04:30:05;23.30;;;9.30;;
24030;SDS011;12240;51.142;22.486;2023-11-21T04:32:32;19.90;;;8.50;;
24030;SDS011;12240;51.142;22.486;2023-11-21T04:34:58;18.70;;;7.50;;
24030;SDS011;12240;51.142;22.486;2023-11-21T04:37:24;20.50;;;8.40;;
24030;SDS011;12240;51.142;22.486;2023-11-21T04:39:50;19.30;;;8.40;;
24030;SDS011;12240;51.142;22.486;2023-11-21T04:42:17;20.00;;;8.10;;
24030;SDS011;12240;51.142;22.486;2023-11-21T04:44:43;18.10;;;7.90;;
24030;SDS011;12240;51.142;22.486;2023-11-21T04:47:10;18.30;;;7.30;;
24030;SDS011;12240;51.142;22.486;2023-11-21T04:49:36;18.20;;;7.70;;
24030;SDS011;12240;51.142;22.486;2023-11-21T04:52:02;21.40;;;7.80;;
24030;SDS011;12240;51.142;22.486;2023-11-21T04:54:30;17.80;;;7.90;;
24030;SDS011;12240;51.142;22.486;2023-11-21T04:56:56;17.40;;;6.90;;
24030;SDS011;12240;51.142;22.486;2023-11-21T04:59:22;17.60;;;7.40;;
24030;SDS011;12240;51.142;22.486;2023-11-21T05:01:52;16.20;;;7.10;;
24030;SDS011;12240;51.142;22.486;2023-11-21T05:04:19;16.40;;;6.80;;
24030;SDS011;12240;51.142;22.486;2023-11-21T05:06:48;14.90;;;6.10;;
24030;SDS011;12240;51.142;22.486;2023-11-21T05:09:14;14.00;;;6.00;;
24030;SDS011;12240;51.142;22.486;2023-11-21T05:11:41;17.80;;;6.70;;
24030;SDS011;12240;51.142;22.486;2023-11-21T05:14:07;13.40;;;5.60;;
24030;SDS011;12240;51.142;22.486;2023-11-21T05:16:34;18.50;;;7.40;;
24030;SDS011;12240;51.142;22.486;2023-11-21T05:19:01;17.30;;;6.60;;
24030;SDS011;12240;51.142;22.486;2023-11-21T05:21:27;16.60;;;7.00;;
24030;SDS011;12240;51.142;22.486;2023-11-21T05:23:55;19.40;;;7.60;;
24030;SDS011;12240;51.142;22.486;2023-11-21T05:26:21;18.60;;;7.20;;
24030;SDS011;12240;51.142;22.486;2023-11-21T05:28:47;17.80;;;7.10;;
24030;SDS011;12240;51.142;22.486;2023-11-21T05:31:13;16.70;;;7.30;;
24030;SDS011;12240;51.142;22.486;2023-11-21T05:33:42;16.90;;;6.70;;
24030;SDS011;12240;51.142;22.486;2023-11-21T05:36:08;21.20;;;7.60;;
24030;SDS011;12240;51.142;22.486;2023-11-21T05:38:35;23.10;;;8.60;;
24030;SDS011;12240;51.142;22.486;2023-11-21T05:41:02;20.00;;;8.60;;
24030;SDS011;12240;51.142;22.486;2023-11-21T05:43:30;19.50;;;8.20;;
24030;SDS011;12240;51.142;22.486;2023-11-21T05:45:56;19.10;;;7.30;;
24030;SDS011;12240;51.142;22.486;2023-11-21T05:48:22;16.00;;;7.20;;
24030;SDS011;12240;51.142;22.486;2023-11-21T05:50:49;18.50;;;7.80;;
24030;SDS011;12240;51.142;22.486;2023-11-21T05:53:15;21.50;;;8.30;;
24030;SDS011;12240;51.142;22.486;2023-11-21T05:55:42;22.40;;;8.20;;
24030;SDS011;12240;51.142;22.486;2023-11-21T05:58:08;21.50;;;8.40;;
24030;SDS011;12240;51.142;22.486;2023-11-21T06:00:34;25.00;;;9.20;;
24030;SDS011;12240;51.142;22.486;2023-11-21T06:03:00;23.60;;;8.90;;
24030;SDS011;12240;51.142;22.486;2023-11-21T06:05:26;19.70;;;8.70;;
24030;SDS011;12240;51.142;22.486;2023-11-21T06:07:53;18.00;;;7.60;;
24030;SDS011;12240;51.142;22.486;2023-11-21T06:10:22;20.30;;;7.60;;
24030;SDS011;12240;51.142;22.486;2023-11-21T06:12:49;24.30;;;9.40;;
24030;SDS011;12240;51.142;22.486;2023-11-21T06:15:15;23.80;;;9.40;;
24030;SDS011;12240;51.142;22.486;2023-11-21T06:17:42;20.90;;;8.60;;
24030;SDS011;12240;51.142;22.486;2023-11-21T06:20:10;23.10;;;9.10;;
24030;SDS011;12240;51.142;22.486;2023-11-21T06:22:42;20.90;;;8.00;;
24030;SDS011;12240;51.142;22.486;2023-11-21T06:25:09;23.60;;;9.00;;
24030;SDS011;12240;51.142;22.486;2023-11-21T06:27:37;21.10;;;8.70;;
24030;SDS011;12240;51.142;22.486;2023-11-21T06:30:04;20.10;;;8.50;;
24030;SDS011;12240;51.142;22.486;2023-11-21T06:32:32;19.20;;;7.90;;
24030;SDS011;12240;51.142;22.486;2023-11-21T06:34:58;20.10;;;8.90;;
24030;SDS011;12240;51.142;22.486;2023-11-21T06:37:27;19.70;;;7.60;;
24030;SDS011;12240;51.142;22.486;2023-11-21T06:39:54;22.10;;;8.90;;
24030;SDS011;12240;51.142;22.486;2023-11-21T06:42:22;17.70;;;7.30;;
24030;SDS011;12240;51.142;22.486;2023-11-21T06:44:49;21.90;;;8.60;;
24030;SDS011;12240;51.142;22.486;2023-11-21T06:47:19;21.50;;;8.50;;
24030;SDS011;12240;51.142;22.486;2023-11-21T06:49:46;17.20;;;7.10;;
24030;SDS011;12240;51.142;22.486;2023-11-21T06:52:15;15.40;;;7.00;;
24030;SDS011;12240;51.142;22.486;2023-11-21T06:54:41;18.00;;;7.50;;
24030;SDS011;12240;51.142;22.486;2023-11-21T06:57:07;16.20;;;6.10;;
24030;SDS011;12240;51.142;22.486;2023-11-21T06:59:33;20.50;;;7.70;;
24030;SDS011;12240;51.142;22.486;2023-11-21T07:02:00;16.00;;;6.80;;
24030;SDS011;12240;51.142;22.486;2023-11-21T07:04:26;16.10;;;6.90;;
24030;SDS011;12240;51.142;22.486;2023-11-21T07:06:55;20.20;;;8.00;;
24030;SDS011;12240;51.142;22.486;2023-11-21T07:09:21;18.80;;;8.00;;
24030;SDS011;12240;51.142;22.486;2023-11-21T07:11:51;17.90;;;7.00;;
24030;SDS011;12240;51.142;22.486;2023-11-21T07:14:18;21.20;;;8.70;;
24030;SDS011;12240;51.142;22.486;2023-11-21T07:16:45;18.40;;;6.70;;
24030;SDS011;12240;51.142;22.486;2023-11-21T07:19:12;16.70;;;6.60;;
24030;SDS011;12240;51.142;22.486;2023-11-21T07:21:38;19.80;;;8.30;;
24030;SDS011;12240;51.142;22.486;2023-11-21T07:24:05;17.90;;;7.30;;
24030;SDS011;12240;51.142;22.486;2023-11-21T07:26:32;19.10;;;7.00;;
24030;SDS011;12240;51.142;22.486;2023-11-21T07:29:00;18.20;;;8.40;;
24030;SDS011;12240;51.142;22.486;2023-11-21T07:31:27;18.40;;;7.80;;
24030;SDS011;12240;51.142;22.486;2023-11-21T07:33:53;20.00;;;7.20;;
24030;SDS011;12240;51.142;22.486;2023-11-21T07:36:19;18.20;;;8.10;;
24030;SDS011;12240;51.142;22.486;2023-11-21T07:38:46;20.80;;;8.90;;
24030;SDS011;12240;51.142;22.486;2023-11-21T07:41:13;21.50;;;9.00;;
24030;SDS011;12240;51.142;22.486;2023-11-21T07:43:56;19.10;;;8.10;;
24030;SDS011;12240;51.142;22.486;2023-11-21T07:46:22;24.90;;;9.50;;
24030;SDS011;12240;51.142;22.486;2023-11-21T07:48:49;21.40;;;9.50;;
24030;SDS011;12240;51.142;22.486;2023-11-21T07:51:15;20.90;;;8.70;;
24030;SDS011;12240;51.142;22.486;2023-11-21T07:53:41;22.90;;;8.70;;
24030;SDS011;12240;51.142;22.486;2023-11-21T07:56:08;18.10;;;7.30;;
24030;SDS011;12240;51.142;22.486;2023-11-21T07:58:35;22.10;;;9.10;;
24030;SDS011;12240;51.142;22.486;2023-11-21T08:01:01;21.80;;;9.50;;
24030;SDS011;12240;51.142;22.486;2023-11-21T08:03:29;18.10;;;8.10;;
24030;SDS011;12240;51.142;22.486;2023-11-21T08:05:56;24.40;;;8.20;;
24030;SDS011;12240;51.142;22.486;2023-11-21T08:08:23;21.90;;;9.40;;
24030;SDS011;12240;51.142;22.486;2023-11-21T08:10:50;18.30;;;7.40;;
24030;SDS011;12240;51.142;22.486;2023-11-21T08:13:26;16.70;;;7.40;;
24030;SDS011;12240;51.142;22.486;2023-11-21T08:15:54;17.30;;;6.50;;
24030;SDS011;12240;51.142;22.486;2023-11-21T08:18:21;20.00;;;8.60;;
24030;SDS011;12240;51.142;22.486;2023-11-21T08:20:48;18.80;;;7.90;;
24030;SDS011;12240;51.142;22.486;2023-11-21T08:23:14;16.50;;;6.70;;
24030;SDS011;12240;51.142;22.486;2023-11-21T08:25:45;16.60;;;8.10;;
24030;SDS011;12240;51.142;22.486;2023-11-21T08:28:12;19.30;;;7.30;;
24030;SDS011;12240;51.142;22.486;2023-11-21T08:30:41;21.80;;;9.60;;
24030;SDS011;12240;51.142;22.486;2023-11-21T08:33:08;19.40;;;9.00;;
24030;SDS011;12240;51.142;22.486;2023-11-21T08:35:34;24.40;;;10.50;;
24030;SDS011;12240;51.142;22.486;2023-11-21T08:38:02;22.80;;;9.80;;
24030;SDS011;12240;51.142;22.486;2023-11-21T08:40:28;16.20;;;7.10;;
24030;SDS011;12240;51.142;22.486;2023-11-21T08:42:54;23.80;;;10.50;;
24030;SDS011;12240;51.142;22.486;2023-11-21T08:45:21;19.10;;;9.20;;
24030;SDS011;12240;51.142;22.486;2023-11-21T08:47:47;18.60;;;8.90;;
24030;SDS011;12240;51.142;22.486;2023-11-21T08:50:14;19.30;;;8.60;;
24030;SDS011;12240;51.142;22.486;2023-11-21T08:52:40;21.90;;;9.40;;
24030;SDS011;12240;51.142;22.486;2023-11-21T08:55:08;18.90;;;8.50;;
24030;SDS011;12240;51.142;22.486;2023-11-21T08:57:34;23.90;;;10.00;;
24030;SDS011;12240;51.142;22.486;2023-11-21T09:00:02;23.20;;;9.80;;
24030;SDS011;12240;51.142;22.486;2023-11-21T09:02:32;23.50;;;11.20;;
24030;SDS011;12240;51.142;22.486;2023-11-21T09:04:59;28.20;;;10.90;;
24030;SDS011;12240;51.142;22.486;2023-11-21T09:07:29;23.00;;;9.80;;
24030;SDS011;12240;51.142;22.486;2023-11-21T09:09:55;23.90;;;9.70;;
24030;SDS011;12240;51.142;22.486;2023-11-21T09:12:21;20.80;;;9.20;;
24030;SDS011;12240;51.142;22.486;2023-11-21T09:14:47;24.50;;;10.00;;
24030;SDS011;12240;51.142;22.486;2023-11-21T09:17:13;23.90;;;10.00;;
24030;SDS011;12240;51.142;22.486;2023-11-21T09:19:40;24.40;;;10.20;;
24030;SDS011;12240;51.142;22.486;2023-11-21T09:22:06;23.00;;;9.80;;
24030;SDS011;12240;51.142;22.486;2023-11-21T09:24:33;23.50;;;10.30;;
24030;SDS011;12240;51.142;22.486;2023-11-21T09:27:01;24.10;;;10.90;;
24030;SDS011;12240;51.142;22.486;2023-11-21T09:29:27;23.10;;;10.50;;
24030;SDS011;12240;51.142;22.486;2023-11-21T09:31:53;27.50;;;11.90;;
24030;SDS011;12240;51.142;22.486;2023-11-21T09:34:20;33.70;;;13.00;;
24030;SDS011;12240;51.142;22.486;2023-11-21T09:36:47;24.20;;;11.30;;
24030;SDS011;12240;51.142;22.486;2023-11-21T09:39:14;33.20;;;12.90;;
24030;SDS011;12240;51.142;22.486;2023-11-21T09:41:43;23.70;;;9.60;;
24030;SDS011;12240;51.142;22.486;2023-11-21T09:44:13;28.00;;;11.60;;
24030;SDS011;12240;51.142;22.486;2023-11-21T09:46:43;27.40;;;12.60;;
24030;SDS011;12240;51.142;22.486;2023-11-21T09:49:12;26.00;;;10.60;;
24030;SDS011;12240;51.142;22.486;2023-11-21T09:51:40;28.20;;;11.90;;
24030;SDS011;12240;51.142;22.486;2023-11-21T09:54:11;24.80;;;11.00;;
24030;SDS011;12240;51.142;22.486;2023-11-21T09:56:37;32.10;;;12.10;;
24030;SDS011;12240;51.142;22.486;2023-11-21T09:59:03;30.30;;;13.00;;
24030;SDS011;12240;51.142;22.486;2023-11-21T10:01:35;27.10;;;11.50;;
24030;SDS011;12240;51.142;22.486;2023-11-21T10:04:03;25.20;;;11.30;;
24030;SDS011;12240;51.142;22.486;2023-11-21T10:06:31;22.30;;;10.60;;
24030;SDS011;12240;51.142;22.486;2023-11-21T10:08:58;22.90;;;10.00;;
24030;SDS011;12240;51.142;22.486;2023-11-21T10:11:25;22.50;;;9.80;;
24030;SDS011;12240;51.142;22.486;2023-11-21T10:13:53;26.60;;;12.40;;
24030;SDS011;12240;51.142;22.486;2023-11-21T10:16:20;24.50;;;10.70;;
24030;SDS011;12240;51.142;22.486;2023-11-21T10:18:51;29.50;;;12.10;;
24030;SDS011;12240;51.142;22.486;2023-11-21T10:21:34;25.20;;;11.50;;
24030;SDS011;12240;51.142;22.486;2023-11-21T10:24:00;26.30;;;11.80;;
24030;SDS011;12240;51.142;22.486;2023-11-21T10:26:28;25.10;;;12.50;;
24030;SDS011;12240;51.142;22.486;2023-11-21T10:28:57;25.10;;;11.40;;
24030;SDS011;12240;51.142;22.486;2023-11-21T10:31:27;22.10;;;10.50;;
24030;SDS011;12240;51.142;22.486;2023-11-21T10:33:53;20.00;;;9.30;;
24030;SDS011;12240;51.142;22.486;2023-11-21T10:36:26;27.00;;;12.10;;
24030;SDS011;12240;51.142;22.486;2023-11-21T10:38:53;25.60;;;12.60;;
24030;SDS011;12240;51.142;22.486;2023-11-21T10:41:20;25.40;;;10.80;;
24030;SDS011;12240;51.142;22.486;2023-11-21T10:43:46;31.50;;;14.30;;
24030;SDS011;12240;51.142;22.486;2023-11-21T10:46:13;30.40;;;13.70;;
24030;SDS011;12240;51.142;22.486;2023-11-21T10:48:43;30.80;;;14.80;;
24030;SDS011;12240;51.142;22.486;2023-11-21T10:51:09;29.20;;;12.70;;
24030;SDS011;12240;51.142;22.486;2023-11-21T10:53:41;21.00;;;9.20;;
24030;SDS011;12240;51.142;22.486;2023-11-21T10:56:10;28.20;;;12.50;;
24030;SDS011;12240;51.142;22.486;2023-11-21T10:58:45;30.20;;;14.00;;
24030;SDS011;12240;51.142;22.486;2023-11-21T11:01:11;32.00;;;14.10;;
24030;SDS011;12240;51.142;22.486;2023-11-21T11:03:41;29.90;;;13.30;;
24030;SDS011;12240;51.142;22.486;2023-11-21T11:06:10;37.70;;;14.10;;
24030;SDS011;12240;51.142;22.486;2023-11-21T11:08:38;29.70;;;13.70;;
24030;SDS011;12240;51.142;22.486;2023-11-21T11:11:05;27.80;;;13.00;;
24030;SDS011;12240;51.142;22.486;2023-11-21T11:13:31;29.60;;;13.90;;
24030;SDS011;12240;51.142;22.486;2023-11-21T11:15:58;28.30;;;13.40;;
24030;SDS011;12240;51.142;22.486;2023-11-21T11:18:27;34.90;;;15.60;;
24030;SDS011;12240;51.142;22.486;2023-11-21T11:20:57;34.00;;;15.80;;
24030;SDS011;12240;51.142;22.486;2023-11-21T11:26:12;31.80;;;15.20;;
24030;SDS011;12240;51.142;22.486;2023-11-21T11:32:24;35.70;;;16.10;;
24030;SDS011;12240;51.142;22.486;2023-11-21T11:34:46;34.00;;;15.60;;
24030;SDS011;12240;51.142;22.486;2023-11-21T11:37:20;40.00;;;16.60;;
24030;SDS011;12240;51.142;22.486;2023-11-21T11:39:48;40.80;;;17.30;;
24030;SDS011;12240;51.142;22.486;2023-11-21T11:42:16;37.90;;;17.30;;
24030;SDS011;12240;51.142;22.486;2023-11-21T11:47:15;36.80;;;15.90;;
24030;SDS011;12240;51.142;22.486;2023-11-21T11:55:08;36.30;;;15.30;;
24030;SDS011;12240;51.142;22.486;2023-11-21T11:57:36;37.60;;;16.20;;
24030;SDS011;12240;51.142;22.486;2023-11-21T12:03:02;31.00;;;14.00;;
24030;SDS011;12240;51.142;22.486;2023-11-21T12:05:30;41.40;;;18.10;;
24030;SDS011;12240;51.142;22.486;2023-11-21T12:08:10;55.30;;;22.20;;
24030;SDS011;12240;51.142;22.486;2023-11-21T12:10:37;37.40;;;16.80;;
24030;SDS011;12240;51.142;22.486;2023-11-21T12:13:07;39.90;;;17.80;;
24030;SDS011;12240;51.142;22.486;2023-11-21T12:15:36;39.40;;;17.50;;
24030;SDS011;12240;51.142;22.486;2023-11-21T12:18:03;40.00;;;15.60;;
24030;SDS011;12240;51.142;22.486;2023-11-21T12:20:31;37.40;;;16.60;;
24030;SDS011;12240;51.142;22.486;2023-11-21T12:22:58;38.80;;;17.30;;
24030;SDS011;12240;51.142;22.486;2023-11-21T12:25:28;30.40;;;13.80;;
24030;SDS011;12240;51.142;22.486;2023-11-21T12:27:57;29.90;;;14.10;;
24030;SDS011;12240;51.142;22.486;2023-11-21T12:30:28;25.40;;;11.70;;
24030;SDS011;12240;51.142;22.486;2023-11-21T12:32:58;29.50;;;14.50;;
24030;SDS011;12240;51.142;22.486;2023-11-21T12:35:30;31.50;;;14.70;;
24030;SDS011;12240;51.142;22.486;2023-11-21T12:38:00;28.10;;;13.50;;
24030;SDS011;12240;51.142;22.486;2023-11-21T12:40:28;30.50;;;13.90;;
24030;SDS011;12240;51.142;22.486;2023-11-21T12:42:55;23.60;;;12.00;;
24030;SDS011;12240;51.142;22.486;2023-11-21T12:45:24;27.00;;;14.10;;
24030;SDS011;12240;51.142;22.486;2023-11-21T12:50:29;28.80;;;14.20;;
24030;SDS011;12240;51.142;22.486;2023-11-21T12:53:06;27.40;;;13.30;;
24030;SDS011;12240;51.142;22.486;2023-11-21T12:55:38;31.00;;;12.50;;
24030;SDS011;12240;51.142;22.486;2023-11-21T12:58:05;32.60;;;14.80;;
24030;SDS011;12240;51.142;22.486;2023-11-21T13:00:42;38.50;;;14.50;;
24030;SDS011;12240;51.142;22.486;2023-11-21T13:03:11;38.00;;;17.30;;
24030;SDS011;12240;51.142;22.486;2023-11-21T13:05:42;36.40;;;16.40;;
24030;SDS011;12240;51.142;22.486;2023-11-21T13:08:16;31.80;;;13.60;;
24030;SDS011;12240;51.142;22.486;2023-11-21T13:10:47;34.30;;;16.90;;
24030;SDS011;12240;51.142;22.486;2023-11-21T13:13:16;39.40;;;17.30;;
24030;SDS011;12240;51.142;22.486;2023-11-21T13:18:31;45.90;;;19.00;;
24030;SDS011;12240;51.142;22.486;2023-11-21T13:20:58;36.30;;;15.50;;
24030;SDS011;12240;51.142;22.486;2023-11-21T13:23:28;34.70;;;14.50;;
24030;SDS011;12240;51.142;22.486;2023-11-21T13:25:55;30.50;;;14.20;;
24030;SDS011;12240;51.142;22.486;2023-11-21T13:28:33;32.50;;;14.80;;
24030;SDS011;12240;51.142;22.486;2023-11-21T13:31:01;34.00;;;15.70;;
24030;SDS011;12240;51.142;22.486;2023-11-21T13:33:38;27.30;;;12.60;;
24030;SDS011;12240;51.142;22.486;2023-11-21T13:38:35;28.00;;;12.10;;
24030;SDS011;12240;51.142;22.486;2023-11-21T13:41:03;28.90;;;12.40;;
24030;SDS011;12240;51.142;22.486;2023-11-21T13:43:33;34.20;;;15.80;;
24030;SDS011;12240;51.142;22.486;2023-11-21T13:45:59;34.40;;;15.60;;
24030;SDS011;12240;51.142;22.486;2023-11-21T13:48:43;29.60;;;11.90;;
24030;SDS011;12240;51.142;22.486;2023-11-21T13:51:16;35.10;;;15.90;;
24030;SDS011;12240;51.142;22.486;2023-11-21T13:53:47;33.90;;;15.00;;
24030;SDS011;12240;51.142;22.486;2023-11-21T13:56:18;32.50;;;14.00;;
24030;SDS011;12240;51.142;22.486;2023-11-21T13:58:49;36.50;;;14.10;;
24030;SDS011;12240;51.142;22.486;2023-11-21T14:01:21;32.20;;;14.70;;
24030;SDS011;12240;51.142;22.486;2023-11-21T14:03:59;34.00;;;14.40;;
24030;SDS011;12240;51.142;22.486;2023-11-21T14:06:35;44.30;;;16.90;;
24030;SDS011;12240;51.142;22.486;2023-11-21T14:09:11;37.90;;;15.80;;
24030;SDS011;12240;51.142;22.486;2023-11-21T14:11:41;28.30;;;11.60;;
24030;SDS011;12240;51.142;22.486;2023-11-21T14:14:13;43.20;;;15.60;;
24030;SDS011;12240;51.142;22.486;2023-11-21T14:16:39;37.50;;;14.80;;
24030;SDS011;12240;51.142;22.486;2023-11-21T14:19:05;28.70;;;12.30;;
24030;SDS011;12240;51.142;22.486;2023-11-21T14:21:41;38.60;;;14.70;;
24030;SDS011;12240;51.142;22.486;2023-11-21T14:24:09;35.00;;;14.50;;
24030;SDS011;12240;51.142;22.486;2023-11-21T14:26:39;34.30;;;12.90;;
24030;SDS011;12240;51.142;22.486;2023-11-21T14:29:08;29.40;;;11.50;;
24030;SDS011;12240;51.142;22.486;2023-11-21T14:31:36;27.00;;;11.40;;
24030;SDS011;12240;51.142;22.486;2023-11-21T14:34:02;21.50;;;10.00;;
24030;SDS011;12240;51.142;22.486;2023-11-21T14:36:30;23.60;;;10.40;;
24030;SDS011;12240;51.142;22.486;2023-11-21T14:38:56;24.40;;;10.30;;
24030;SDS011;12240;51.142;22.486;2023-11-21T14:41:22;31.00;;;11.40;;
24030;SDS011;12240;51.142;22.486;2023-11-21T14:43:47;24.60;;;9.30;;